Time;durP1;ratioP1;P1;durP2;ratioP2;P2;SDS_P1;SDS_P2;PMS_P1;PMS_P2;Temp;Humidity;BMP_temperature;BMP_pressure;BME280_temperature;BME280_humidity;BME280_pressure;Samples;Min_cycle;Max_cycle;Signal;HPM_P1;HPM_P2
2020/12/11 00:01:49;;;;;;;28.38;10.07;;;3.90;78.90;;;;;;4899549;29;20076;-83
2020/12/11 00:04:15;;;;;;;31.15;10.00;;;3.90;78.90;;;;;;4899944;29;20066;-83
2020/12/11 00:06:40;;;;;;;25.38;8.50;;;3.90;79.00;;;;;;4899504;29;20410;-83
2020/12/11 00:09:06;;;;;;;38.03;10.52;;;4.00;79.00;;;;;;4883998;29;20058;-83
2020/12/11 00:11:32;;;;;;;28.92;9.10;;;4.00;79.10;;;;;;4899348;29;20020;-82
2020/12/11 00:13:58;;;;;;;27.70;9.55;;;4.00;78.70;;;;;;4899518;29;20467;-82
2020/12/11 00:16:24;;;;;;;32.65;9.90;;;4.00;78.80;;;;;;4915415;29;20051;-82
2020/12/11 00:18:50;;;;;;;35.80;9.75;;;4.00;78.90;;;;;;4896024;29;20497;-82
2020/12/11 00:21:16;;;;;;;33.05;9.32;;;4.00;78.90;;;;;;4880721;29;20096;-83
2020/12/11 00:23:41;;;;;;;24.85;9.48;;;4.00;78.80;;;;;;4880933;29;20029;-82
2020/12/11 00:26:07;;;;;;;30.33;9.57;;;4.00;78.90;;;;;;4882005;29;20021;-82
2020/12/11 00:28:33;;;;;;;35.15;10.25;;;4.00;78.50;;;;;;4880840;29;20033;-83
2020/12/11 00:30:58;;;;;;;32.30;9.90;;;4.00;78.50;;;;;;4902891;29;20122;-82
2020/12/11 00:33:27;;;;;;;28.90;10.30;;;4.00;78.90;;;;;;4868914;29;20044;-82
2020/12/11 00:35:53;;;;;;;29.05;10.27;;;4.00;78.80;;;;;;4895911;29;20380;-82
2020/12/11 00:38:20;;;;;;;28.05;9.35;;;3.90;78.50;;;;;;4880369;29;20041;-82
2020/12/11 00:40:46;;;;;;;22.95;8.38;;;3.90;78.80;;;;;;4897307;29;20032;-82
2020/12/11 00:43:11;;;;;;;30.90;8.45;;;3.90;78.80;;;;;;4897161;29;20025;-82
2020/12/11 00:45:37;;;;;;;30.20;9.55;;;4.00;78.80;;;;;;4861111;29;20028;-82
2020/12/11 00:48:02;;;;;;;26.10;9.52;;;3.90;78.50;;;;;;4880654;29;20036;-82
2020/12/11 00:50:28;;;;;;;20.92;6.95;;;3.90;78.80;;;;;;4866291;29;20033;-82
2020/12/11 00:52:54;;;;;;;29.38;9.10;;;4.00;79.10;;;;;;4885791;29;20037;-82
2020/12/11 00:55:21;;;;;;;24.20;8.43;;;4.00;79.00;;;;;;4878664;29;20065;-83
2020/12/11 00:57:47;;;;;;;28.92;8.68;;;4.00;79.00;;;;;;4881387;29;20024;-82
2020/12/11 01:00:14;;;;;;;22.83;7.80;;;4.00;78.70;;;;;;4881146;29;20029;-84
2020/12/11 01:02:40;;;;;;;29.20;9.00;;;4.00;78.80;;;;;;4876138;29;20033;-82
2020/12/11 01:05:06;;;;;;;24.73;7.88;;;4.00;79.00;;;;;;4897045;29;20442;-83
2020/12/11 01:07:32;;;;;;;26.92;7.65;;;4.00;78.70;;;;;;4880425;29;20065;-83
2020/12/11 01:09:57;;;;;;;24.85;6.80;;;4.00;79.50;;;;;;4872188;29;20029;-83
2020/12/11 01:12:23;;;;;;;28.08;7.93;;;4.00;79.00;;;;;;4865947;29;20033;-83
2020/12/11 01:14:49;;;;;;;26.08;8.15;;;4.00;78.90;;;;;;4865944;29;20099;-84
2020/12/11 01:17:14;;;;;;;27.15;8.18;;;4.00;78.80;;;;;;4897049;29;20041;-84
2020/12/11 01:19:40;;;;;;;23.30;7.97;;;4.00;79.00;;;;;;4893692;29;20060;-84
2020/12/11 01:22:07;;;;;;;24.92;7.93;;;4.10;79.20;;;;;;4883113;29;20541;-84
2020/12/11 01:24:32;;;;;;;20.13;6.53;;;4.10;79.70;;;;;;4898900;29;20032;-84
2020/12/11 01:26:58;;;;;;;25.27;7.93;;;4.10;78.90;;;;;;4899005;29;20024;-84
2020/12/11 01:29:24;;;;;;;26.92;8.77;;;4.10;79.00;;;;;;4883442;29;20504;-84
2020/12/11 01:31:54;;;;;;;23.85;7.55;;;4.10;78.80;;;;;;4900432;29;20028;-84
2020/12/11 01:34:19;;;;;;;31.13;9.40;;;4.10;78.70;;;;;;4887204;29;20437;-84
2020/12/11 01:36:45;;;;;;;29.73;7.35;;;4.00;78.70;;;;;;4892728;29;20032;-84
2020/12/11 01:39:10;;;;;;;26.73;8.52;;;4.00;78.70;;;;;;4917755;29;20091;-84
2020/12/11 01:41:36;;;;;;;29.67;9.95;;;4.00;78.50;;;;;;4886887;29;20024;-83
2020/12/11 01:44:06;;;;;;;24.73;7.78;;;4.00;78.80;;;;;;4886437;29;20043;-83
2020/12/11 01:46:37;;;;;;;27.20;6.97;;;4.00;78.90;;;;;;4902138;29;20067;-82
2020/12/11 01:49:03;;;;;;;27.30;8.50;;;4.00;78.70;;;;;;4913144;29;20028;-81
2020/12/11 01:51:28;;;;;;;29.67;8.25;;;3.90;78.70;;;;;;4901956;29;20564;-82
2020/12/11 01:53:55;;;;;;;29.27;7.70;;;3.90;78.60;;;;;;4887240;29;20038;-82
2020/12/11 01:56:25;;;;;;;27.10;8.73;;;3.90;78.70;;;;;;4901787;29;20536;-83
2020/12/11 01:58:56;;;;;;;30.15;8.05;;;4.00;78.80;;;;;;4918942;29;20570;-83
2020/12/11 02:01:21;;;;;;;29.67;8.45;;;3.90;78.80;;;;;;4912919;29;20032;-83
2020/12/11 02:03:48;;;;;;;23.38;8.35;;;3.90;78.70;;;;;;4886031;29;20036;-83
2020/12/11 02:06:13;;;;;;;27.50;8.18;;;3.90;78.70;;;;;;4902069;29;20024;-82
2020/12/11 02:08:39;;;;;;;27.85;8.90;;;3.90;78.60;;;;;;4901658;29;20028;-82
2020/12/11 02:11:18;;;;;;;33.45;10.07;;;3.90;78.70;;;;;;4901725;29;20056;-83
2020/12/11 02:13:44;;;;;;;24.67;8.63;;;3.90;78.80;;;;;;4901776;29;20028;-83
2020/12/11 02:16:10;;;;;;;22.20;8.00;;;3.90;78.90;;;;;;4886046;29;20029;-84
2020/12/11 02:18:36;;;;;;;28.98;7.40;;;3.90;78.90;;;;;;4885633;29;20527;-84
2020/12/11 02:21:02;;;;;;;25.83;9.45;;;3.90;79.40;;;;;;4901445;29;20028;-84
2020/12/11 02:23:28;;;;;;;21.27;7.75;;;3.90;78.90;;;;;;4918515;29;20408;-84
2020/12/11 02:25:53;;;;;;;25.77;7.35;;;3.90;79.00;;;;;;4901610;29;20111;-83
2020/12/11 02:28:19;;;;;;;22.67;7.50;;;3.90;79.00;;;;;;4886178;29;20047;-83
2020/12/11 02:30:45;;;;;;;24.35;8.55;;;3.90;79.00;;;;;;4885719;29;20036;-83
2020/12/11 02:33:10;;;;;;;26.65;8.88;;;4.00;78.90;;;;;;4901218;29;20060;-84
2020/12/11 02:35:39;;;;;;;23.85;8.07;;;4.00;78.90;;;;;;4901445;29;20487;-82
2020/12/11 02:38:05;;;;;;;22.00;7.05;;;4.00;79.00;;;;;;4901660;29;20033;-82
2020/12/11 02:40:31;;;;;;;23.42;7.15;;;4.00;79.00;;;;;;4885957;29;20092;-82
2020/12/11 02:42:56;;;;;;;23.30;7.60;;;4.00;78.90;;;;;;4870023;29;20032;-83
2020/12/11 02:45:22;;;;;;;24.17;7.22;;;4.00;78.80;;;;;;4899650;29;20051;-84
2020/12/11 02:47:47;;;;;;;28.50;7.53;;;4.00;79.10;;;;;;4901254;29;20111;-84
2020/12/11 02:50:13;;;;;;;26.90;8.63;;;4.00;78.80;;;;;;4900854;29;20087;-84
2020/12/11 02:52:38;;;;;;;28.65;8.50;;;3.90;78.80;;;;;;4885286;29;20021;-84
2020/12/11 02:55:04;;;;;;;22.52;7.70;;;3.90;78.60;;;;;;4869990;29;20032;-84
2020/12/11 02:57:29;;;;;;;26.23;7.38;;;3.90;78.80;;;;;;4885488;29;20035;-85
2020/12/11 02:59:55;;;;;;;25.08;6.93;;;3.90;78.80;;;;;;4900787;29;20442;-85
2020/12/11 03:02:21;;;;;;;21.17;6.93;;;3.90;78.90;;;;;;4900656;29;20115;-84
2020/12/11 03:04:46;;;;;;;22.95;6.15;;;3.90;79.00;;;;;;4900699;29;20481;-84
2020/12/11 03:07:12;;;;;;;24.92;7.97;;;3.90;79.00;;;;;;4900600;29;20028;-85
2020/12/11 03:09:37;;;;;;;26.10;7.13;;;4.00;78.70;;;;;;4888639;29;20024;-84
2020/12/11 03:12:03;;;;;;;24.77;7.95;;;3.90;78.80;;;;;;4873343;29;20036;-85
2020/12/11 03:14:29;;;;;;;27.17;8.77;;;3.90;78.90;;;;;;4924390;29;20032;-84
2020/12/11 03:16:54;;;;;;;27.23;7.63;;;3.90;78.60;;;;;;4901135;29;20062;-84
2020/12/11 03:19:20;;;;;;;24.88;6.82;;;3.90;78.80;;;;;;4881822;29;20143;-84
2020/12/11 03:21:45;;;;;;;24.10;7.15;;;3.90;78.90;;;;;;4866387;29;20035;-84
2020/12/11 03:24:11;;;;;;;28.60;8.05;;;3.90;78.90;;;;;;4881850;29;20044;-84
2020/12/11 03:26:37;;;;;;;22.42;7.55;;;3.90;78.80;;;;;;4866368;29;20047;-85
2020/12/11 03:29:02;;;;;;;25.15;7.07;;;3.80;78.50;;;;;;4881218;29;20470;-84
2020/12/11 03:31:28;;;;;;;27.15;7.40;;;3.80;78.60;;;;;;4881751;29;20036;-85
2020/12/11 03:33:53;;;;;;;19.08;5.70;;;3.80;78.90;;;;;;4866298;29;20029;-84
2020/12/11 03:36:20;;;;;;;26.20;7.53;;;3.70;78.60;;;;;;4881494;29;20036;-84
2020/12/11 03:38:47;;;;;;;26.42;7.03;;;3.80;78.90;;;;;;4896826;29;20032;-85
2020/12/11 03:41:16;;;;;;;23.35;6.65;;;3.80;79.10;;;;;;4881804;29;20031;-84
2020/12/11 03:43:42;;;;;;;17.38;7.45;;;3.80;79.10;;;;;;4866073;29;20478;-85
2020/12/11 03:46:08;;;;;;;24.70;7.93;;;3.90;79.20;;;;;;4850599;29;20031;-81
2020/12/11 03:48:34;;;;;;;23.48;7.55;;;3.90;79.10;;;;;;4881191;29;20048;-81
2020/12/11 03:51:00;;;;;;;23.35;7.18;;;3.90;79.10;;;;;;4881294;29;20119;-81
2020/12/11 03:53:25;;;;;;;24.05;7.28;;;3.90;79.00;;;;;;4881015;29;20455;-81
2020/12/11 03:55:51;;;;;;;20.02;7.20;;;3.90;79.00;;;;;;4880766;29;20033;-82
2020/12/11 03:58:17;;;;;;;19.15;6.45;;;3.90;78.80;;;;;;4881179;29;20044;-81
2020/12/11 04:00:42;;;;;;;19.27;7.05;;;3.80;78.80;;;;;;4898120;29;20477;-82
2020/12/11 04:03:08;;;;;;;18.30;6.43;;;3.90;78.80;;;;;;4865736;29;20059;-82
2020/12/11 04:05:33;;;;;;;20.83;6.65;;;3.80;78.70;;;;;;4865863;29;20032;-82
2020/12/11 04:07:59;;;;;;;19.02;6.55;;;3.80;79.00;;;;;;4850290;29;20039;-82
2020/12/11 04:10:24;;;;;;;20.42;6.03;;;3.80;79.20;;;;;;4881226;29;20371;-82
2020/12/11 04:12:50;;;;;;;18.88;7.72;;;3.90;79.10;;;;;;4880769;29;20032;-82
2020/12/11 04:15:16;;;;;;;21.60;7.47;;;3.90;79.00;;;;;;4880956;29;20041;-82
2020/12/11 04:17:41;;;;;;;19.50;6.93;;;3.90;79.00;;;;;;4880806;29;20036;-82
2020/12/11 04:20:07;;;;;;;19.73;6.10;;;3.90;78.80;;;;;;4892145;29;20151;-82
2020/12/11 04:22:32;;;;;;;20.17;7.50;;;3.80;78.70;;;;;;4916562;29;20047;-81
2020/12/11 04:24:58;;;;;;;21.70;6.45;;;3.80;78.80;;;;;;4916643;29;20062;-81
2020/12/11 04:27:24;;;;;;;18.73;7.03;;;3.80;78.90;;;;;;4910994;29;20382;-83
2020/12/11 04:29:49;;;;;;;20.25;6.75;;;3.80;78.80;;;;;;4911103;29;20111;-84
2020/12/11 04:32:15;;;;;;;20.63;6.00;;;3.80;79.00;;;;;;4911295;29;20066;-84
2020/12/11 04:34:40;;;;;;;21.33;6.97;;;3.80;79.20;;;;;;4894063;29;20032;-82
2020/12/11 04:37:06;;;;;;;22.80;7.43;;;3.90;79.20;;;;;;4924370;29;20076;-82
2020/12/11 04:39:32;;;;;;;17.60;7.60;;;3.90;79.70;;;;;;4899063;29;20063;-82
2020/12/11 04:41:57;;;;;;;15.77;6.43;;;3.80;78.80;;;;;;4908705;29;20055;-82
2020/12/11 04:44:23;;;;;;;19.50;7.47;;;3.80;78.80;;;;;;4913388;29;20043;-82
2020/12/11 04:46:50;;;;;;;16.33;7.13;;;3.90;79.00;;;;;;4910849;29;20092;-82
2020/12/11 04:49:16;;;;;;;18.05;7.57;;;3.80;79.00;;;;;;4913422;29;20171;-83
2020/12/11 04:51:49;;;;;;;21.13;7.28;;;3.80;79.00;;;;;;4912109;29;20486;-84
2020/12/11 04:54:18;;;;;;;19.48;7.22;;;3.80;78.90;;;;;;4913318;29;20035;-83
2020/12/11 04:56:47;;;;;;;19.55;7.00;;;3.90;79.10;;;;;;4908523;29;20496;-83
2020/12/11 04:59:13;;;;;;;18.65;7.95;;;3.80;78.90;;;;;;4891312;29;20393;-83
2020/12/11 05:01:39;;;;;;;19.92;8.75;;;3.80;78.70;;;;;;4903939;29;20031;-83
2020/12/11 05:04:04;;;;;;;16.00;6.68;;;3.80;78.70;;;;;;4905842;29;20032;-82
2020/12/11 05:06:30;;;;;;;20.15;8.10;;;3.80;78.80;;;;;;4908955;29;20389;-82
2020/12/11 05:09:19;;;;;;;17.48;7.93;;;3.70;78.70;;;;;;4925998;29;20139;-82
2020/12/11 05:11:46;;;;;;;20.75;7.43;;;3.70;79.00;;;;;;4915126;29;20032;-83
2020/12/11 05:14:27;;;;;;;17.20;7.28;;;3.70;79.00;;;;;;4916436;29;20112;-82
2020/12/11 05:17:06;;;;;;;18.98;7.60;;;3.80;79.00;;;;;;4916764;29;20035;-83
2020/12/11 05:19:47;;;;;;;21.50;8.52;;;3.70;78.80;;;;;;4922864;29;20058;-83
2020/12/11 05:22:13;;;;;;;15.27;6.60;;;3.70;79.10;;;;;;4909284;29;20016;-83
2020/12/11 05:24:44;;;;;;;16.25;6.28;;;3.80;79.00;;;;;;4910592;29;20123;-84
2020/12/11 05:27:32;;;;;;;18.80;6.68;;;3.70;78.90;;;;;;4905417;29;20024;-83
2020/12/11 05:30:07;;;;;;;17.20;6.60;;;3.70;78.80;;;;;;4920535;29;20373;-83
2020/12/11 05:32:54;;;;;;;16.05;6.93;;;3.70;78.80;;;;;;4907238;29;20234;-82
2020/12/11 05:35:24;;;;;;;17.15;7.53;;;3.70;78.80;;;;;;4921570;29;20028;-82
2020/12/11 05:38:02;;;;;;;17.90;7.78;;;3.70;79.00;;;;;;4920327;29;20032;-82
2020/12/11 05:40:29;;;;;;;20.20;7.40;;;3.70;79.10;;;;;;4910036;29;20039;-82
2020/12/11 05:43:09;;;;;;;19.92;7.95;;;3.70;78.90;;;;;;4922249;29;20016;-83
2020/12/11 05:45:36;;;;;;;19.42;8.20;;;3.80;79.00;;;;;;4921082;29;20028;-82
2020/12/11 05:48:06;;;;;;;16.27;6.90;;;3.70;78.70;;;;;;4907629;29;20019;-82
2020/12/11 05:50:33;;;;;;;28.80;14.23;;;3.70;78.50;;;;;;4904074;29;20119;-82
2020/12/11 05:52:59;;;;;;;20.00;8.60;;;3.60;78.50;;;;;;4909351;29;20245;-82
2020/12/11 05:55:24;;;;;;;19.20;8.38;;;3.60;78.50;;;;;;4903917;29;20060;-82
2020/12/11 05:57:57;;;;;;;19.95;8.02;;;3.60;78.80;;;;;;4895686;29;20151;-82
2020/12/11 06:00:24;;;;;;;18.48;8.20;;;3.60;78.80;;;;;;4905940;29;20035;-82
2020/12/11 06:02:51;;;;;;;17.05;8.15;;;3.60;79.40;;;;;;4909356;29;20481;-82
2020/12/11 06:05:19;;;;;;;22.83;8.73;;;3.60;78.70;;;;;;4903040;29;20024;-84
2020/12/11 06:07:46;;;;;;;20.98;9.18;;;3.60;78.80;;;;;;4921070;29;20437;-84
2020/12/11 06:10:16;;;;;;;20.73;8.63;;;3.60;79.10;;;;;;4905951;29;20491;-84
2020/12/11 06:12:42;;;;;;;22.38;9.35;;;3.60;78.80;;;;;;4909530;29;20036;-82
2020/12/11 06:15:33;;;;;;;16.65;7.07;;;3.60;78.80;;;;;;4925271;29;20036;-82
2020/12/11 06:18:07;;;;;;;19.98;8.38;;;3.60;78.80;;;;;;4920703;29;20422;-82
2020/12/11 06:20:34;;;;;;;20.33;9.30;;;3.60;79.70;;;;;;4899018;29;20020;-82
2020/12/11 06:23:18;;;;;;;19.98;8.07;;;3.60;79.00;;;;;;4886118;29;20068;-83
2020/12/11 06:25:50;;;;;;;24.63;9.38;;;3.70;79.20;;;;;;4898545;29;20472;-83
2020/12/11 06:28:35;;;;;;;21.42;8.65;;;3.70;79.00;;;;;;4917391;29;20032;-82
2020/12/11 06:31:10;;;;;;;21.60;8.63;;;3.70;78.80;;;;;;4916895;29;20024;-81
2020/12/11 06:33:37;;;;;;;25.27;10.10;;;3.70;78.90;;;;;;4917248;29;20479;-81
2020/12/11 06:36:05;;;;;;;22.45;9.73;;;3.60;78.40;;;;;;4885984;29;20489;-81
2020/12/11 06:38:53;;;;;;;25.98;10.82;;;3.60;78.70;;;;;;4901486;29;20051;-81
2020/12/11 06:41:28;;;;;;;19.50;7.63;;;3.60;78.60;;;;;;4899505;29;20025;-82
2020/12/11 06:44:18;;;;;;;23.70;8.52;;;3.70;79.00;;;;;;4905277;29;20424;-82
2020/12/11 06:46:43;;;;;;;21.42;8.77;;;3.60;78.90;;;;;;4910746;29;20032;-82
2020/12/11 06:49:21;;;;;;;25.73;9.82;;;3.60;78.90;;;;;;4916770;29;20245;-82
2020/12/11 06:51:47;;;;;;;22.35;8.43;;;3.70;79.00;;;;;;4899151;29;20032;-81
2020/12/11 06:54:22;;;;;;;24.55;9.82;;;3.80;79.10;;;;;;4901474;29;20020;-82
2020/12/11 06:56:55;;;;;;;23.17;9.02;;;3.80;79.00;;;;;;4901273;29;20065;-82
2020/12/11 06:59:33;;;;;;;25.05;10.05;;;3.70;78.90;;;;;;4914468;29;20044;-81
2020/12/11 07:02:05;;;;;;;22.23;8.57;;;3.70;78.80;;;;;;4898753;29;20024;-81
2020/12/11 07:04:37;;;;;;;22.50;9.38;;;3.80;79.00;;;;;;4900587;29;20366;-82
2020/12/11 07:07:03;;;;;;;24.95;10.38;;;4.10;79.20;;;;;;4901250;29;20032;-81
2020/12/11 07:09:29;;;;;;;18.70;8.63;;;3.90;78.80;;;;;;4916618;29;20167;-81
2020/12/11 07:11:56;;;;;;;25.75;9.90;;;3.80;78.90;;;;;;4916836;29;20051;-81
2020/12/11 07:14:27;;;;;;;26.77;8.60;;;3.60;78.80;;;;;;4916200;29;20028;-81
2020/12/11 07:16:53;;;;;;;22.67;9.40;;;3.80;79.00;;;;;;4916617;29;20380;-81
2020/12/11 07:19:18;;;;;;;23.15;9.35;;;3.90;78.80;;;;;;4916285;29;20505;-80
2020/12/11 07:21:46;;;;;;;22.27;9.65;;;3.70;78.80;;;;;;4917228;29;20110;-86
2020/12/11 07:24:23;;;;;;;24.92;9.35;;;3.80;78.80;;;;;;4900952;29;20024;-85
2020/12/11 07:26:59;;;;;;;20.55;9.02;;;3.70;78.80;;;;;;4900773;29;20024;-80
2020/12/11 07:29:24;;;;;;;22.83;9.10;;;3.80;79.70;;;;;;4899764;29;20548;-81
2020/12/11 07:31:51;;;;;;;22.08;8.73;;;3.90;79.40;;;;;;4917320;29;20039;-80
2020/12/11 07:34:19;;;;;;;23.40;8.70;;;4.00;79.60;;;;;;4916128;29;20584;-80
2020/12/11 07:36:46;;;;;;;24.38;9.98;;;4.00;79.50;;;;;;4898158;29;20038;-80
2020/12/11 07:39:16;;;;;;;28.48;10.88;;;4.00;79.00;;;;;;4916145;29;20485;-80
2020/12/11 07:41:44;;;;;;;25.67;10.30;;;4.10;79.30;;;;;;4900041;29;20122;-80
2020/12/11 07:44:22;;;;;;;23.45;9.57;;;4.10;79.20;;;;;;4900170;29;20032;-81
2020/12/11 07:46:48;;;;;;;22.45;10.05;;;4.10;79.00;;;;;;4920737;29;20098;-86
2020/12/11 07:49:14;;;;;;;23.75;9.00;;;4.20;79.10;;;;;;4900175;29;20107;-85
2020/12/11 07:51:49;;;;;;;24.17;9.95;;;4.10;79.20;;;;;;4884906;29;20495;-85
2020/12/11 07:54:15;;;;;;;18.33;7.68;;;4.10;79.00;;;;;;4900256;29;20477;-86
2020/12/11 07:56:41;;;;;;;24.17;9.07;;;4.10;78.50;;;;;;4915857;29;20032;-86
2020/12/11 07:59:14;;;;;;;19.80;8.88;;;4.10;78.60;;;;;;4900101;29;20092;-86
2020/12/11 08:01:46;;;;;;;26.25;10.88;;;4.00;78.40;;;;;;4899960;29;20028;-86
2020/12/11 08:04:12;;;;;;;26.80;9.93;;;4.00;78.70;;;;;;4899955;29;20028;-86
2020/12/11 08:06:38;;;;;;;25.77;9.57;;;4.00;78.70;;;;;;4899903;29;20433;-86
2020/12/11 08:09:14;;;;;;;24.42;9.63;;;4.10;79.20;;;;;;4884441;29;20028;-86
2020/12/11 08:11:43;;;;;;;24.25;10.40;;;4.10;79.30;;;;;;4899804;29;20381;-86
2020/12/11 08:14:09;;;;;;;20.38;9.05;;;4.10;79.20;;;;;;4885229;29;20035;-85
2020/12/11 08:16:40;;;;;;;23.13;9.55;;;4.20;79.10;;;;;;4915260;29;20036;-83
2020/12/11 08:19:09;;;;;;;27.92;10.57;;;4.20;79.20;;;;;;4915782;29;20040;-84
2020/12/11 08:21:34;;;;;;;24.33;10.68;;;4.20;78.90;;;;;;4899792;29;20024;-84
2020/12/11 08:24:00;;;;;;;22.90;10.68;;;4.20;79.00;;;;;;4899711;29;20087;-84
2020/12/11 08:26:37;;;;;;;21.08;8.13;;;4.30;79.10;;;;;;4915761;29;20469;-84
2020/12/11 08:29:08;;;;;;;24.48;10.73;;;4.40;79.20;;;;;;4900839;29;20171;-83
2020/12/11 08:31:42;;;;;;;24.23;9.07;;;4.40;79.10;;;;;;4897162;29;20024;-84
2020/12/11 08:34:13;;;;;;;23.58;8.95;;;4.40;78.90;;;;;;4915632;29;20035;-83
2020/12/11 08:36:46;;;;;;;22.88;9.07;;;4.40;79.20;;;;;;4915630;29;20028;-85
2020/12/11 08:39:17;;;;;;;23.08;9.73;;;4.50;79.30;;;;;;4925426;29;20019;-85
2020/12/11 08:44:51;;;;;;;23.15;9.38;;;4.60;79.50;;;;;;4920284;29;20020;-85
2020/12/11 08:47:40;;;;;;;19.52;7.93;;;4.70;79.20;;;;;;4919427;29;20040;-83
2020/12/11 08:50:12;;;;;;;21.95;9.95;;;4.50;79.10;;;;;;4919205;29;20028;-84
2020/12/11 08:52:38;;;;;;;27.20;11.05;;;4.70;78.80;;;;;;4919406;29;20495;-85
2020/12/11 08:55:03;;;;;;;24.63;8.95;;;4.80;79.10;;;;;;4919225;29;20024;-84
2020/12/11 08:57:32;;;;;;;23.58;10.18;;;4.80;78.70;;;;;;4919078;29;20034;-84
2020/12/11 08:59:58;;;;;;;22.05;9.75;;;4.70;78.50;;;;;;4903146;29;20028;-84
2020/12/11 09:02:26;;;;;;;19.23;8.48;;;4.60;78.60;;;;;;4919127;29;20115;-82
2020/12/11 09:04:55;;;;;;;22.00;9.38;;;4.50;78.50;;;;;;4888177;29;20084;-82
2020/12/11 09:07:22;;;;;;;24.15;10.38;;;4.50;78.50;;;;;;4887814;29;20545;-83
2020/12/11 09:09:47;;;;;;;23.63;9.43;;;4.60;78.80;;;;;;4917673;29;20429;-83
2020/12/11 09:12:13;;;;;;;20.67;9.15;;;4.70;78.80;;;;;;4887246;29;20028;-83
2020/12/11 09:14:39;;;;;;;21.10;9.45;;;4.80;79.30;;;;;;4887318;29;20088;-82
2020/12/11 09:17:04;;;;;;;23.23;10.05;;;4.60;79.00;;;;;;4918750;29;20046;-83
2020/12/11 09:19:33;;;;;;;25.55;12.02;;;4.60;78.70;;;;;;4918398;29;20087;-83
2020/12/11 09:22:00;;;;;;;26.38;10.15;;;4.60;79.10;;;;;;4918725;29;20523;-84
2020/12/11 09:24:29;;;;;;;21.63;9.48;;;4.70;79.20;;;;;;4887656;29;20413;-84
2020/12/11 09:26:56;;;;;;;22.02;8.90;;;4.80;79.30;;;;;;4914643;29;20393;-84
2020/12/11 09:29:32;;;;;;;24.33;10.38;;;4.90;79.20;;;;;;4918741;29;20027;-84
2020/12/11 09:31:59;;;;;;;21.08;8.35;;;4.90;78.80;;;;;;4904155;29;20126;-85
2020/12/11 09:34:25;;;;;;;22.23;9.35;;;4.90;79.30;;;;;;4918432;29;20397;-84
2020/12/11 09:37:18;;;;;;;21.40;10.55;;;4.90;79.60;;;;;;4918504;29;20021;-81
2020/12/11 09:39:43;;;;;;;16.90;6.97;;;4.90;79.10;;;;;;4918393;29;20047;-80
2020/12/11 09:50:42;;;;;;;21.92;9.80;;;5.20;79.30;;;;;;4919658;29;20025;-81
2020/12/11 09:55:49;;;;;;;20.55;9.45;;;5.30;79.70;;;;;;4919353;29;20078;-81
2020/12/11 09:58:15;;;;;;;22.42;9.95;;;5.40;79.50;;;;;;4902477;29;20111;-86
2020/12/11 10:00:44;;;;;;;22.20;9.98;;;5.50;79.90;;;;;;4918455;29;20461;-85
2020/12/11 10:03:13;;;;;;;19.00;8.35;;;5.70;79.70;;;;;;4917754;29;20028;-86
2020/12/11 10:05:43;;;;;;;25.40;11.57;;;5.80;79.80;;;;;;4902449;29;20016;-86
2020/12/11 10:08:09;;;;;;;24.30;10.40;;;5.60;79.00;;;;;;4902202;29;20054;-85
2020/12/11 10:10:34;;;;;;;22.00;9.55;;;5.70;79.30;;;;;;4886256;29;20519;-86
2020/12/11 10:13:01;;;;;;;21.42;9.57;;;5.70;79.50;;;;;;4887150;29;20021;-86
2020/12/11 10:15:27;;;;;;;21.55;9.57;;;5.80;79.70;;;;;;4886516;29;20477;-86
2020/12/11 10:17:53;;;;;;;24.52;9.68;;;5.80;79.60;;;;;;4917705;29;20127;-86
2020/12/11 10:20:20;;;;;;;19.05;8.45;;;5.70;79.20;;;;;;4917180;29;20080;-85
2020/12/11 10:22:48;;;;;;;24.17;9.57;;;6.00;79.50;;;;;;4917440;29;20086;-85
2020/12/11 10:25:13;;;;;;;19.08;8.75;;;5.90;79.40;;;;;;4917490;29;20119;-87
2020/12/11 10:27:39;;;;;;;20.45;10.35;;;5.90;79.70;;;;;;4885762;29;20449;-86
2020/12/11 10:30:05;;;;;;;21.63;9.95;;;6.20;79.80;;;;;;4917644;29;20115;-86
2020/12/11 10:32:35;;;;;;;19.77;8.98;;;6.30;79.00;;;;;;4917276;29;20020;-87
2020/12/11 10:35:05;;;;;;;21.40;9.68;;;6.10;79.10;;;;;;4917285;29;20367;-87
2020/12/11 10:37:34;;;;;;;20.75;9.18;;;6.30;79.70;;;;;;4913602;29;20028;-87
2020/12/11 10:40:06;;;;;;;21.77;9.68;;;6.30;79.90;;;;;;4913525;29;20059;-88
2020/12/11 10:42:32;;;;;;;23.48;9.55;;;6.50;79.90;;;;;;4917624;29;20024;-87
2020/12/11 10:45:15;;;;;;;19.05;8.68;;;6.60;79.50;;;;;;4917557;29;20465;-87
2020/12/11 10:47:42;;;;;;;18.10;7.95;;;6.70;79.60;;;;;;4900635;29;20079;-88
2020/12/11 10:50:07;;;;;;;21.00;9.25;;;6.70;79.70;;;;;;4917889;29;20039;-88
2020/12/11 10:52:36;;;;;;;20.33;8.93;;;6.70;79.10;;;;;;4917586;29;20354;-86
2020/12/11 10:58:47;;;;;;;21.10;8.60;;;6.80;79.40;;;;;;4866933;29;20047;-91
2020/12/11 11:01:29;;;;;;;21.60;9.82;;;6.70;78.90;;;;;;4891545;29;20040;-90
2020/12/11 11:04:44;;;;;;;;;;;;;;;;;;;;;
2020/12/11 11:07:27;;;;;;;22.25;9.60;;;6.50;78.10;;;;;;4919703;29;20032;-89
2020/12/11 11:10:26;;;;;;;;;;;;;;;;;;;;;
2020/12/11 11:27:43;;;;;;;22.40;10.48;;;6.50;79.20;;;;;;4913284;29;20100;-87
2020/12/11 11:30:10;;;;;;;;;;;6.60;78.60;;;;;;4892568;29;20032;-88
2020/12/11 11:32:35;;;;;;;18.77;8.50;;;6.40;78.40;;;;;;4916781;29;19911;-87
2020/12/11 11:35:04;;;;;;;20.40;10.27;;;6.60;79.40;;;;;;4916983;29;20039;-88
2020/12/11 11:37:39;;;;;;;22.25;9.15;;;6.80;79.70;;;;;;4916999;29;20024;-88
2020/12/11 11:40:04;;;;;;;19.27;7.80;;;6.80;79.20;;;;;;4916731;29;20036;-89
2020/12/11 11:42:30;;;;;;;19.80;9.27;;;6.90;79.30;;;;;;4885342;29;20384;-87
2020/12/11 11:47:22;;;;;;;14.65;6.90;;;6.80;78.40;;;;;;4920063;29;20024;-87
2020/12/11 11:54:42;;;;;;;20.20;9.07;;;6.70;79.00;;;;;;4917467;29;20020;-90
2020/12/11 11:57:09;;;;;;;21.02;10.25;;;6.70;78.40;;;;;;4900333;29;20032;-89
2020/12/11 11:59:38;;;;;;;19.23;8.75;;;6.70;78.00;;;;;;4916117;29;20119;-87
2020/12/11 12:06:06;;;;;;;20.00;7.70;;;6.50;78.60;;;;;;4914906;29;20035;-87
2020/12/11 12:16:14;;;;;;;18.88;8.80;;;6.30;77.80;;;;;;4860608;29;20025;-86
2020/12/11 12:29:55;;;;;;;18.20;8.40;;;6.10;78.80;;;;;;4838183;29;20090;-89
2020/12/11 12:44:58;;;;;;;17.08;7.18;;;6.50;78.50;;;;;;4882952;29;20126;-89
2020/12/11 12:47:24;;;;;;;18.02;7.05;;;6.60;78.60;;;;;;4880054;29;20024;-85
2020/12/11 12:53:00;;;;;;;20.67;9.48;;;6.60;78.30;;;;;;4819699;29;20095;-88
2020/12/11 12:56:30;;;;;;;18.92;8.80;;;6.70;78.60;;;;;;4868999;29;20117;-86
2020/12/11 12:58:38;;;;;;;21.42;10.10;;;6.70;78.30;;;;;;4898205;29;20123;-84
2020/12/11 13:06:43;;;;;;;21.70;8.85;;;6.80;78.20;;;;;;4897988;29;20092;-87
2020/12/11 13:09:26;;;;;;;21.10;8.98;;;6.60;77.70;;;;;;4912053;29;20032;-86
2020/12/11 13:12:18;;;;;;;18.05;8.65;;;6.60;77.30;;;;;;4899129;29;20036;-87
2020/12/11 13:14:52;;;;;;;17.75;8.57;;;6.50;77.70;;;;;;4884411;29;20025;-87
2020/12/11 13:17:18;;;;;;;17.48;8.93;;;6.50;78.00;;;;;;4898195;29;20037;-86
2020/12/11 13:20:00;;;;;;;20.92;8.82;;;6.60;78.40;;;;;;4914616;29;20091;-85
2020/12/11 13:28:32;;;;;;;19.67;8.63;;;6.60;77.90;;;;;;4917348;29;20024;-90
2020/12/11 13:31:05;;;;;;;19.27;8.45;;;6.50;77.40;;;;;;4918881;29;20060;-86
2020/12/11 13:33:31;;;;;;;18.52;8.65;;;6.40;77.70;;;;;;4913887;29;20020;-87
2020/12/11 13:36:38;;;;;;;23.30;11.43;;;6.40;77.50;;;;;;4902852;29;20532;-88
2020/12/11 13:39:30;;;;;;;21.27;8.55;;;6.30;76.90;;;;;;4904651;29;20108;-86
2020/12/11 13:42:29;;;;;;;23.98;9.48;;;6.20;77.40;;;;;;4902232;29;20035;-86
2020/12/11 13:44:59;;;;;;;27.83;12.02;;;6.20;77.50;;;;;;4916917;29;20076;-86
2020/12/11 13:47:25;;;;;;;18.90;9.25;;;6.10;77.40;;;;;;4922402;29;20036;-85
2020/12/11 13:49:53;;;;;;;21.40;9.93;;;6.10;77.80;;;;;;4918336;29;20020;-87
2020/12/11 13:52:19;;;;;;;20.52;8.52;;;6.10;77.50;;;;;;4902587;29;20039;-86
2020/12/11 13:54:45;;;;;;;18.15;9.13;;;6.10;77.60;;;;;;4917807;29;20044;-85
2020/12/11 13:57:11;;;;;;;22.42;10.48;;;6.00;77.60;;;;;;4918330;29;20067;-86
2020/12/11 13:59:43;;;;;;;17.35;8.32;;;6.20;77.70;;;;;;4915741;29;20099;-86
2020/12/11 14:02:34;;;;;;;18.25;9.48;;;6.00;77.10;;;;;;4919336;29;20024;-87
2020/12/11 14:05:02;;;;;;;25.50;12.38;;;5.90;77.10;;;;;;4903737;29;20028;-85
2020/12/11 14:07:28;;;;;;;32.50;17.27;;;6.00;77.10;;;;;;4892828;29;20020;-85
2020/12/11 14:09:54;;;;;;;19.88;9.07;;;5.80;77.30;;;;;;4925486;29;20031;-89
2020/12/11 14:12:22;;;;;;;19.42;9.65;;;5.80;77.00;;;;;;4904734;29;20132;-89
2020/12/11 14:25:43;;;;;;;16.83;8.27;;;5.60;77.30;;;;;;4853130;29;20109;-88
2020/12/11 14:28:10;;;;;;;19.98;10.18;;;5.40;76.60;;;;;;4841177;29;20057;-87
2020/12/11 14:30:36;;;;;;;19.05;9.40;;;5.40;76.90;;;;;;4837993;29;20046;-87
2020/12/11 14:33:13;;;;;;;21.13;10.02;;;5.40;77.20;;;;;;4909293;29;20410;-90
2020/12/11 14:35:45;;;;;;;20.85;9.52;;;5.40;77.50;;;;;;4903831;29;20036;-90
2020/12/11 14:41:21;;;;;;;;;;;;;;;;;;;;;
2020/12/11 14:43:48;;;;;;;22.00;11.07;;;5.20;77.00;;;;;;4896526;29;20028;-87